createdAt,value
2022-11-21T00:00:52.417Z,2.64
2022-11-21T00:03:18.981Z,2.85
2022-11-21T00:05:48.067Z,2.72
2022-11-21T00:08:20.114Z,2.98
2022-11-21T00:10:47.081Z,2.93
2022-11-21T00:13:20.049Z,2.81
2022-11-21T00:15:47.710Z,2.95
2022-11-21T00:18:14.830Z,2.85
2022-11-21T00:20:42.228Z,3.04
2022-11-21T00:23:09.764Z,2.82
2022-11-21T00:25:37.122Z,2.72
2022-11-21T00:28:04.953Z,2.84
2022-11-21T00:30:31.807Z,2.74
2022-11-21T00:32:59.190Z,2.99
2022-11-21T00:35:25.825Z,3.00
2022-11-21T00:37:52.436Z,3.05
2022-11-21T00:40:19.227Z,3.13
2022-11-21T00:42:45.816Z,3.08
2022-11-21T00:45:12.406Z,3.17
2022-11-21T00:47:39.048Z,3.21
2022-11-21T00:50:06.316Z,3.28
2022-11-21T00:52:33.000Z,3.22
2022-11-21T00:54:59.601Z,3.25
2022-11-21T00:57:26.176Z,3.30
2022-11-21T00:59:52.716Z,3.52
2022-11-21T01:02:19.543Z,3.60
2022-11-21T01:04:46.096Z,3.51
2022-11-21T01:07:14.329Z,3.42
2022-11-21T01:09:41.005Z,3.39
2022-11-21T01:12:07.798Z,3.35
2022-11-21T01:14:34.391Z,3.38
2022-11-21T01:17:01.006Z,3.49
2022-11-21T01:19:27.581Z,3.66
2022-11-21T01:21:54.092Z,3.65
2022-11-21T01:24:20.684Z,3.82
2022-11-21T01:26:49.100Z,3.66
2022-11-21T01:29:15.724Z,3.87
2022-11-21T01:31:42.420Z,3.88
2022-11-21T01:34:09.038Z,3.76
2022-11-21T01:36:35.692Z,3.86
2022-11-21T01:39:06.081Z,3.76
2022-11-21T01:41:38.670Z,3.87
2022-11-21T01:44:24.387Z,3.71
2022-11-21T01:46:52.716Z,3.76
2022-11-21T01:49:24.547Z,3.79
2022-11-21T01:51:56.436Z,3.91
2022-11-21T01:54:31.635Z,3.92
2022-11-21T01:57:05.689Z,3.68
2022-11-21T01:59:51.011Z,3.70
2022-11-21T02:02:21.911Z,3.73
2022-11-21T02:04:49.808Z,3.93
2022-11-21T02:07:19.562Z,3.83
2022-11-21T02:09:57.750Z,3.85
2022-11-21T02:12:38.065Z,3.83
2022-11-21T02:15:05.012Z,4.06
2022-11-21T02:17:32.658Z,4.24
2022-11-21T02:20:05.189Z,4.10
2022-11-21T02:23:13.770Z,4.06
2022-11-21T02:25:42.334Z,4.26
2022-11-21T02:28:16.619Z,4.04
2022-11-21T02:30:43.927Z,3.92
2022-11-21T02:33:11.889Z,4.01
2022-11-21T02:35:39.064Z,3.97
2022-11-21T02:38:20.867Z,3.90
2022-11-21T02:40:53.481Z,3.88
2022-11-21T02:43:24.548Z,3.97
2022-11-21T02:45:51.431Z,3.90
2022-11-21T02:48:17.983Z,4.07
2022-11-21T02:50:46.927Z,3.90
2022-11-21T02:53:16.531Z,3.78
2022-11-21T02:55:43.730Z,3.77
2022-11-21T02:58:11.164Z,3.72
2022-11-21T03:00:39.534Z,3.74
2022-11-21T03:03:06.524Z,3.61
2022-11-21T03:05:33.621Z,3.52
2022-11-21T03:08:00.269Z,3.51
2022-11-21T03:10:26.907Z,3.47
2022-11-21T03:13:00.879Z,3.54
2022-11-21T03:15:30.353Z,3.55
2022-11-21T03:17:58.032Z,3.46
2022-11-21T03:20:24.929Z,3.39
2022-11-21T03:22:53.507Z,3.39
2022-11-21T03:25:20.563Z,3.37
2022-11-21T03:27:47.192Z,3.42
2022-11-21T03:30:13.925Z,3.40
2022-11-21T03:32:40.511Z,3.42
2022-11-21T03:35:07.429Z,3.46
2022-11-21T03:37:34.055Z,3.52
2022-11-21T03:40:00.644Z,3.47
2022-11-21T03:42:27.273Z,3.52
2022-11-21T03:44:53.800Z,3.43
2022-11-21T03:47:20.393Z,3.42
2022-11-21T03:49:46.953Z,3.42
2022-11-21T03:52:13.506Z,3.66
2022-11-21T03:54:40.076Z,3.58
2022-11-21T03:57:06.676Z,3.59
2022-11-21T03:59:33.317Z,3.54
2022-11-21T04:01:59.939Z,3.51
2022-11-21T04:04:26.930Z,3.74
2022-11-21T04:06:53.723Z,3.64
2022-11-21T04:09:20.328Z,3.66
2022-11-21T04:11:46.922Z,3.60
2022-11-21T04:14:13.453Z,3.64
2022-11-21T04:16:40.020Z,3.92
2022-11-21T04:19:06.557Z,3.82
2022-11-21T04:21:33.139Z,3.75
2022-11-21T04:23:59.706Z,3.53
2022-11-21T04:26:26.227Z,3.39
2022-11-21T04:28:52.790Z,3.30
2022-11-21T04:31:19.402Z,3.54
2022-11-21T04:33:46.014Z,3.35
2022-11-21T04:36:12.566Z,3.41
2022-11-21T04:38:39.180Z,3.10
2022-11-21T04:41:05.814Z,2.97
2022-11-21T04:43:32.560Z,2.95
2022-11-21T04:45:59.124Z,2.72
2022-11-21T04:48:25.792Z,2.58
2022-11-21T04:50:52.340Z,2.39
2022-11-21T04:53:18.950Z,2.28
2022-11-21T04:55:45.492Z,2.11
2022-11-21T04:58:12.077Z,2.15
2022-11-21T05:00:38.609Z,2.15
2022-11-21T05:03:06.302Z,2.14
2022-11-21T05:05:33.272Z,2.21
2022-11-21T05:07:59.880Z,2.26
2022-11-21T05:10:26.747Z,2.29
2022-11-21T05:13:19.383Z,2.30
2022-11-21T05:15:46.286Z,2.36
2022-11-21T05:18:12.956Z,2.32
2022-11-21T05:20:39.527Z,2.31
2022-11-21T05:23:06.325Z,2.39
2022-11-21T05:25:33.048Z,2.41
2022-11-21T05:27:59.610Z,2.35
2022-11-21T05:30:26.295Z,2.37
2022-11-21T05:32:52.914Z,2.42
2022-11-21T05:35:19.524Z,2.44
2022-11-21T05:37:46.084Z,2.46
2022-11-21T05:40:13.096Z,2.61
2022-11-21T05:42:59.249Z,2.58
2022-11-21T05:45:26.081Z,2.60
2022-11-21T05:47:52.654Z,2.57
2022-11-21T05:50:19.336Z,2.73
2022-11-21T05:52:45.893Z,2.81
2022-11-21T05:55:12.450Z,2.93
2022-11-21T05:57:39.045Z,2.99
2022-11-21T06:00:06.307Z,3.42
2022-11-21T06:03:05.283Z,3.42
2022-11-21T06:05:31.860Z,3.43
2022-11-21T06:07:58.463Z,3.43
2022-11-21T06:10:25.055Z,3.36
2022-11-21T06:12:51.636Z,3.44
2022-11-21T06:15:18.194Z,3.63
2022-11-21T06:17:44.797Z,3.52
2022-11-21T06:20:11.588Z,3.50
2022-11-21T06:22:38.159Z,3.41
2022-11-21T06:25:05.024Z,3.44
2022-11-21T06:27:31.599Z,3.43
2022-11-21T06:29:58.158Z,3.37
2022-11-21T06:32:24.772Z,3.39
2022-11-21T06:34:51.403Z,3.21
2022-11-21T06:37:17.971Z,3.14
2022-11-21T06:39:44.537Z,3.05
2022-11-21T06:42:11.113Z,3.26
2022-11-21T06:44:37.665Z,3.17
2022-11-21T06:47:04.310Z,3.01
2022-11-21T06:49:30.861Z,3.06
2022-11-21T06:51:57.417Z,2.88
2022-11-21T06:54:23.963Z,2.68
2022-11-21T06:56:52.401Z,2.57
2022-11-21T06:59:18.976Z,2.50
2022-11-21T07:01:45.849Z,2.64
2022-11-21T07:04:12.585Z,2.47
2022-11-21T07:06:39.141Z,2.66
2022-11-21T07:09:31.601Z,2.55
2022-11-21T07:11:52.274Z,2.31
2022-11-21T07:14:18.821Z,2.54
2022-11-21T07:16:45.397Z,2.45
2022-11-21T07:19:12.132Z,2.61
2022-11-21T07:21:38.787Z,2.59
2022-11-21T07:24:05.955Z,2.70
2022-11-21T07:26:32.557Z,2.74
2022-11-21T07:28:59.132Z,2.69
2022-11-21T07:31:25.685Z,2.91
2022-11-21T07:33:52.282Z,3.00
2022-11-21T07:36:18.844Z,3.13
2022-11-21T07:38:46.475Z,3.43
2022-11-21T07:41:13.041Z,3.45
2022-11-21T07:43:39.678Z,3.54
2022-11-21T07:46:06.456Z,3.54
2022-11-21T07:48:33.024Z,3.37
2022-11-21T07:51:02.803Z,3.31
2022-11-21T07:53:29.377Z,3.40
2022-11-21T07:55:58.711Z,3.32
2022-11-21T07:58:25.270Z,3.16
2022-11-21T08:00:53.410Z,3.26
2022-11-21T08:03:19.954Z,3.32
2022-11-21T08:05:46.535Z,3.30
2022-11-21T08:08:14.003Z,3.26
2022-11-21T08:10:46.940Z,3.20
2022-11-21T08:13:14.286Z,3.33
2022-11-21T08:15:41.229Z,3.37
2022-11-21T08:18:12.872Z,3.25
2022-11-21T08:20:39.961Z,3.44
2022-11-21T08:23:07.347Z,3.34
2022-11-21T08:25:36.495Z,3.23
2022-11-21T08:28:03.578Z,3.33
2022-11-21T08:30:30.623Z,3.33
2022-11-21T08:32:58.773Z,3.45
2022-11-21T08:35:28.877Z,3.50
2022-11-21T08:38:00.071Z,3.51
2022-11-21T08:40:28.902Z,3.57
2022-11-21T08:43:03.710Z,3.63
2022-11-21T08:45:30.934Z,3.63
2022-11-21T08:47:57.540Z,3.86
2022-11-21T08:50:25.106Z,4.15
2022-11-21T08:52:51.863Z,4.53
2022-11-21T08:55:18.453Z,4.98
2022-11-21T08:57:45.025Z,5.34
2022-11-21T09:00:12.939Z,5.66
2022-11-21T09:02:39.732Z,5.96
2022-11-21T09:05:06.801Z,6.06
2022-11-21T09:07:33.412Z,6.51
2022-11-21T09:10:00.014Z,7.10
2022-11-21T09:12:26.565Z,7.52
2022-11-21T09:15:11.876Z,7.81
2022-11-21T09:17:57.176Z,7.26
2022-11-21T09:20:23.851Z,7.33
2022-11-21T09:22:51.363Z,8.00
2022-11-21T09:25:17.916Z,7.98
2022-11-21T09:27:44.509Z,8.30
2022-11-21T09:30:11.650Z,8.33
2022-11-21T09:32:38.491Z,8.80
2022-11-21T09:35:05.438Z,8.67
2022-11-21T09:37:37.940Z,9.06
2022-11-21T09:40:08.289Z,9.64
2022-11-21T09:43:06.654Z,9.37
2022-11-21T09:45:37.313Z,8.97
2022-11-21T09:48:11.485Z,8.97
2022-11-21T09:50:42.937Z,8.72
2022-11-21T09:53:28.913Z,7.89
2022-11-21T09:56:04.635Z,7.71
2022-11-21T09:58:32.689Z,7.01
2022-11-21T10:00:59.446Z,7.74
2022-11-21T10:03:29.597Z,7.67
2022-11-21T10:06:20.873Z,7.08
2022-11-21T10:08:48.091Z,7.20
2022-11-21T10:11:29.820Z,7.20
2022-11-21T10:14:05.467Z,7.85
2022-11-21T10:16:44.115Z,8.93
2022-11-21T10:19:25.801Z,9.38
2022-11-21T10:22:01.484Z,9.77
2022-11-21T10:24:40.649Z,9.35
2022-11-21T10:27:32.836Z,10.00
2022-11-21T10:30:04.733Z,9.00
2022-11-21T10:32:47.752Z,8.80
2022-11-21T10:35:21.738Z,9.25
2022-11-21T10:37:59.572Z,9.91
2022-11-21T10:40:47.406Z,9.55
2022-11-21T10:43:42.133Z,8.89
2022-11-21T10:46:09.507Z,8.17
2022-11-21T10:48:36.280Z,8.51
2022-11-21T10:51:14.139Z,8.18
2022-11-21T10:54:04.673Z,7.74
2022-11-21T10:56:36.396Z,7.43
2022-11-21T10:59:19.239Z,7.22
2022-11-21T11:01:55.513Z,7.21
2022-11-21T11:04:32.105Z,7.23
2022-11-21T11:07:21.351Z,8.16
2022-11-21T11:09:48.074Z,9.43
2022-11-21T11:12:46.545Z,10.41
2022-11-21T11:15:24.787Z,10.03
2022-11-21T11:17:57.869Z,9.20
2022-11-21T11:20:41.834Z,8.69
2022-11-21T11:23:25.732Z,8.12
2022-11-21T11:26:00.169Z,7.88
2022-11-21T11:28:35.058Z,7.90
2022-11-21T11:31:01.835Z,7.74
2022-11-21T11:33:33.763Z,7.33
2022-11-21T11:36:22.804Z,7.66
2022-11-21T11:38:55.761Z,7.38
2022-11-21T11:41:54.472Z,7.43
2022-11-21T11:44:49.728Z,7.28
2022-11-21T11:47:32.925Z,7.39
2022-11-21T11:50:11.553Z,8.56
2022-11-21T11:52:50.966Z,9.00
2022-11-21T11:55:30.745Z,7.38
2022-11-21T11:58:02.419Z,7.17
2022-11-21T12:00:40.976Z,7.90
2022-11-21T12:03:16.734Z,7.41
2022-11-21T12:06:09.498Z,6.83
2022-11-21T12:08:44.108Z,7.19
2022-11-21T12:12:07.930Z,8.18
2022-11-21T12:15:21.131Z,10.09
2022-11-21T12:17:50.735Z,10.22
2022-11-21T12:20:29.703Z,9.16
2022-11-21T12:22:56.898Z,8.89
2022-11-21T12:25:33.056Z,8.34
2022-11-21T12:27:59.929Z,9.70
2022-11-21T12:30:45.455Z,10.85
2022-11-21T12:33:22.575Z,11.57
2022-11-21T12:35:54.395Z,11.76
2022-11-21T12:38:31.747Z,12.06
2022-11-21T12:41:45.930Z,13.00
2022-11-21T12:44:38.627Z,13.50
2022-11-21T12:47:17.275Z,12.95
2022-11-21T12:50:19.794Z,13.81
2022-11-21T12:53:12.683Z,14.13
2022-11-21T12:55:40.096Z,14.26
2022-11-21T12:58:32.758Z,13.60
2022-11-21T13:01:02.316Z,12.04
2022-11-21T13:03:50.837Z,10.18
2022-11-21T13:06:27.128Z,9.48
2022-11-21T13:08:55.663Z,8.62
2022-11-21T13:11:59.849Z,7.98
2022-11-21T13:14:48.264Z,7.29
2022-11-21T13:17:34.688Z,7.18
2022-11-21T13:20:04.245Z,7.07
2022-11-21T13:22:36.809Z,7.28
2022-11-21T13:25:11.019Z,7.75
2022-11-21T13:27:39.797Z,9.03
2022-11-21T13:30:10.378Z,10.56
2022-11-21T13:32:37.297Z,11.55
2022-11-21T13:35:23.854Z,12.10
2022-11-21T13:37:50.463Z,10.90
2022-11-21T13:40:26.291Z,10.34
2022-11-21T13:43:35.562Z,10.01
2022-11-21T13:46:02.532Z,8.78
2022-11-21T13:48:33.735Z,8.38
2022-11-21T13:51:15.345Z,7.98
2022-11-21T13:53:58.035Z,7.93
2022-11-21T13:56:44.472Z,7.59
2022-11-21T13:59:39.164Z,7.24
2022-11-21T14:02:24.190Z,6.97
2022-11-21T14:04:57.566Z,7.51
2022-11-21T14:07:32.103Z,9.50
2022-11-21T14:10:20.830Z,11.22
2022-11-21T14:12:50.341Z,12.65
2022-11-21T14:15:28.666Z,13.21
2022-11-21T14:17:58.195Z,13.46
2022-11-21T14:20:28.743Z,13.07
2022-11-21T14:23:01.386Z,13.01
2022-11-21T14:25:33.752Z,12.65
2022-11-21T14:28:02.319Z,13.40
2022-11-21T14:30:40.221Z,12.02
2022-11-21T14:33:28.548Z,10.17
2022-11-21T14:36:16.058Z,9.00
2022-11-21T14:38:44.318Z,9.30
2022-11-21T14:41:26.240Z,10.51
2022-11-21T14:43:59.042Z,11.08
2022-11-21T14:46:26.888Z,10.67
2022-11-21T14:48:53.972Z,9.64
2022-11-21T14:51:23.286Z,9.12
2022-11-21T14:53:52.872Z,8.28
2022-11-21T14:56:24.695Z,7.89
2022-11-21T14:58:53.626Z,7.46
2022-11-21T15:01:25.666Z,7.12
2022-11-21T15:04:01.099Z,6.84
2022-11-21T15:06:30.005Z,6.59
2022-11-21T15:10:11.456Z,6.41
2022-11-21T15:11:51.763Z,6.14
2022-11-21T15:14:24.429Z,5.80
2022-11-21T15:16:53.554Z,5.47
2022-11-21T15:19:22.264Z,5.28
2022-11-21T15:21:50.410Z,5.16
2022-11-21T15:24:26.678Z,5.20
2022-11-21T15:26:53.251Z,5.05
2022-11-21T15:29:21.547Z,5.00
2022-11-21T15:32:07.827Z,4.82
2022-11-21T15:34:36.142Z,4.68
2022-11-21T15:37:04.909Z,4.48
2022-11-21T15:39:32.843Z,4.40
2022-11-21T15:42:47.887Z,4.31
2022-11-21T15:45:19.811Z,4.19
2022-11-21T15:47:47.226Z,4.02
2022-11-21T15:50:14.562Z,3.93
2022-11-21T15:52:49.100Z,3.80
2022-11-21T15:55:23.038Z,3.71
2022-11-21T15:57:49.705Z,3.54
2022-11-21T16:00:17.335Z,3.36
2022-11-21T16:02:43.917Z,3.30
2022-11-21T16:05:13.089Z,3.31
2022-11-21T16:07:41.671Z,3.24
2022-11-21T16:10:16.557Z,3.11
2022-11-21T16:12:48.134Z,3.04
2022-11-21T16:15:14.810Z,2.91
2022-11-21T16:17:41.767Z,2.88
2022-11-21T16:20:08.891Z,2.94
2022-11-21T16:22:35.464Z,2.90
2022-11-21T16:25:02.054Z,2.84
2022-11-21T16:27:28.621Z,2.68
2022-11-21T16:29:55.170Z,2.63
2022-11-21T16:32:21.806Z,2.55
2022-11-21T16:34:48.382Z,2.46
2022-11-21T16:37:14.966Z,2.40
2022-11-21T16:39:41.953Z,2.38
2022-11-21T16:42:11.752Z,2.32
2022-11-21T16:44:38.334Z,2.33
2022-11-21T16:47:08.402Z,2.36
2022-11-21T16:49:36.336Z,2.40
2022-11-21T16:52:03.030Z,2.45
2022-11-21T16:54:29.573Z,2.51
2022-11-21T16:56:56.124Z,2.49
2022-11-21T16:59:22.692Z,2.55
2022-11-21T17:01:49.882Z,2.55
2022-11-21T17:04:17.639Z,2.56
2022-11-21T17:06:45.597Z,2.54
2022-11-21T17:09:12.181Z,2.48
2022-11-21T17:11:38.790Z,2.44
2022-11-21T17:14:06.842Z,2.38
2022-11-21T17:16:34.747Z,2.36
2022-11-21T17:19:02.344Z,2.26
2022-11-21T17:21:29.603Z,2.20
2022-11-21T17:23:56.784Z,2.14
2022-11-21T17:26:27.045Z,2.08
2022-11-21T17:28:55.590Z,2.07
2022-11-21T17:31:23.052Z,1.99
2022-11-21T17:33:54.427Z,1.97
2022-11-21T17:36:23.420Z,1.95
2022-11-21T17:38:51.230Z,1.84
2022-11-21T17:41:19.512Z,1.77
2022-11-21T17:43:47.170Z,1.71
2022-11-21T17:46:18.569Z,1.70
2022-11-21T17:48:51.486Z,1.72
2022-11-21T17:51:23.844Z,1.68
2022-11-21T17:53:51.238Z,1.63
2022-11-21T17:56:23.799Z,1.61
2022-11-21T17:58:51.802Z,1.63
2022-11-21T18:01:19.518Z,1.64
2022-11-21T18:03:56.586Z,1.60
2022-11-21T18:06:23.951Z,1.59
2022-11-21T18:08:50.658Z,1.56
2022-11-21T18:11:21.410Z,1.56
2022-11-21T18:13:49.259Z,1.52
2022-11-21T18:16:18.771Z,1.47
2022-11-21T18:18:45.832Z,1.50
2022-11-21T18:21:15.373Z,1.56
2022-11-21T18:23:44.002Z,1.43
2022-11-21T18:26:14.875Z,1.45
2022-11-21T18:28:42.227Z,1.32
2022-11-21T18:31:35.972Z,1.29
2022-11-21T18:34:04.339Z,1.24
2022-11-21T18:36:34.329Z,1.25
2022-11-21T18:39:07.240Z,1.21
2022-11-21T18:41:38.804Z,1.21
2022-11-21T18:44:06.807Z,1.22
2022-11-21T18:46:36.027Z,1.23
2022-11-21T18:49:06.294Z,1.26
2022-11-21T18:51:34.170Z,1.26
2022-11-21T18:54:08.044Z,1.26
2022-11-21T18:56:36.455Z,1.36
2022-11-21T18:59:05.526Z,1.36
2022-11-21T19:01:33.445Z,1.44
2022-11-21T19:04:00.194Z,1.54
2022-11-21T19:06:27.775Z,1.62
2022-11-21T19:08:55.878Z,1.72
2022-11-21T19:11:27.085Z,1.84
2022-11-21T19:13:56.409Z,1.90
2022-11-21T19:16:25.198Z,1.80
2022-11-21T19:21:41.292Z,1.81
2022-11-21T19:24:10.700Z,1.81
2022-11-21T19:26:37.277Z,1.80
2022-11-21T19:29:03.997Z,1.77
2022-11-21T19:31:30.564Z,1.82
2022-11-21T19:33:58.195Z,1.95
2022-11-21T19:36:24.892Z,2.02
2022-11-21T19:38:51.961Z,2.31
2022-11-21T19:41:25.807Z,2.20
2022-11-21T19:43:54.956Z,2.07
2022-11-21T19:46:32.987Z,2.02
2022-11-21T19:49:00.550Z,2.07
2022-11-21T19:51:38.564Z,2.18
2022-11-21T19:54:06.806Z,2.15
2022-11-21T19:56:34.093Z,2.12
2022-11-21T19:59:00.835Z,2.11
2022-11-21T20:01:30.477Z,2.10
2022-11-21T20:03:59.726Z,2.19
2022-11-21T20:06:31.893Z,2.07
2022-11-21T20:09:10.925Z,1.99
2022-11-21T20:11:40.172Z,1.86
2022-11-21T20:14:07.234Z,1.83
2022-11-21T20:16:36.362Z,1.79
2022-11-21T20:19:11.987Z,1.76
2022-11-21T20:21:39.157Z,1.83
2022-11-21T20:24:06.585Z,1.78
2022-11-21T20:26:34.944Z,1.67
2022-11-21T20:29:02.337Z,1.65
2022-11-21T20:31:32.373Z,1.60
2022-11-21T20:34:01.449Z,1.62
2022-11-21T20:36:33.157Z,1.66
2022-11-21T20:39:00.836Z,1.62
2022-11-21T20:41:30.281Z,1.61
2022-11-21T20:44:53.330Z,1.61
2022-11-21T20:46:49.664Z,1.59
2022-11-21T20:49:16.616Z,1.62
2022-11-21T20:54:30.485Z,1.67
2022-11-21T20:56:57.240Z,1.72
2022-11-21T20:59:25.751Z,1.74
2022-11-21T21:01:52.353Z,1.76
2022-11-21T21:04:19.179Z,1.95
2022-11-21T21:06:45.738Z,1.90
2022-11-21T21:09:12.381Z,1.83
2022-11-21T21:11:54.176Z,1.77
2022-11-21T21:14:23.849Z,1.73
2022-11-21T21:16:50.528Z,1.75
2022-11-21T21:19:17.780Z,1.75
2022-11-21T21:21:44.438Z,1.73
2022-11-21T21:24:12.274Z,1.71
2022-11-21T21:26:42.885Z,1.66
2022-11-21T21:29:16.958Z,1.59
2022-11-21T21:31:49.960Z,1.47
2022-11-21T21:34:17.867Z,1.40
2022-11-21T21:36:44.676Z,1.35
2022-11-21T21:39:11.317Z,1.30
2022-11-21T21:41:40.037Z,1.26
2022-11-21T21:44:06.955Z,1.26
2022-11-21T21:46:33.586Z,1.25
2022-11-21T21:49:00.214Z,1.22
2022-11-21T21:51:31.141Z,1.36
2022-11-21T21:53:59.385Z,1.36
2022-11-21T21:56:27.898Z,1.42
2022-11-21T21:58:56.126Z,1.41
2022-11-21T22:01:24.243Z,1.42
2022-11-21T22:03:55.703Z,1.42
2022-11-21T22:06:22.570Z,1.40
2022-11-21T22:08:49.801Z,1.42
2022-11-21T22:11:21.623Z,1.44
2022-11-21T22:13:50.966Z,1.45
2022-11-21T22:16:17.774Z,1.61
2022-11-21T22:18:44.374Z,2.10
2022-11-21T22:21:16.996Z,2.38
2022-11-21T22:24:09.343Z,2.13
2022-11-21T22:26:30.915Z,2.07
2022-11-21T22:28:57.597Z,1.97
2022-11-21T22:31:24.190Z,1.96
2022-11-21T22:33:50.783Z,1.93
2022-11-21T22:36:18.630Z,1.92
2022-11-21T22:38:45.872Z,2.00
2022-11-21T22:41:25.718Z,2.07
2022-11-21T22:43:57.667Z,2.14
2022-11-21T22:46:27.138Z,2.04
2022-11-21T22:48:54.461Z,2.00
2022-11-21T22:51:23.798Z,1.97
2022-11-21T22:53:50.972Z,1.96
2022-11-21T22:56:19.975Z,1.96
2022-11-21T22:58:47.306Z,1.94
2022-11-21T23:01:25.155Z,2.00
2022-11-21T23:03:52.431Z,2.00
2022-11-21T23:06:21.543Z,1.99
2022-11-21T23:08:48.591Z,2.01
2022-11-21T23:11:17.162Z,2.02
2022-11-21T23:13:46.206Z,1.99
2022-11-21T23:16:13.929Z,2.03
2022-11-21T23:18:41.308Z,2.02
2022-11-21T23:21:09.067Z,2.04
2022-11-21T23:23:36.468Z,2.05
2022-11-21T23:26:04.264Z,2.04
2022-11-21T23:28:31.161Z,2.05
2022-11-21T23:30:58.192Z,2.07
2022-11-21T23:33:24.777Z,2.14
2022-11-21T23:35:51.431Z,2.14
2022-11-21T23:38:18.331Z,2.13
2022-11-21T23:40:46.499Z,2.20
2022-11-21T23:43:14.278Z,2.16
2022-11-21T23:45:41.307Z,2.18
2022-11-21T23:48:08.150Z,2.28
2022-11-21T23:50:34.834Z,2.31
2022-11-21T23:53:01.923Z,2.30
2022-11-21T23:55:28.512Z,2.27
2022-11-21T23:57:55.152Z,2.37
